sensor_id;sensor_type;location;lat;lon;timestamp;temperature;humidity
52203;DHT22;38173;52.850;6.970;2022-08-05T00:01:20;17.50;99.90
52203;DHT22;38173;52.850;6.970;2022-08-05T00:03:47;17.40;99.90
52203;DHT22;38173;52.850;6.970;2022-08-05T00:06:13;17.30;99.90
52203;DHT22;38173;52.850;6.970;2022-08-05T00:08:39;17.30;99.90
52203;DHT22;38173;52.850;6.970;2022-08-05T00:11:12;17.30;99.90
52203;DHT22;38173;52.850;6.970;2022-08-05T00:13:40;17.20;99.90
52203;DHT22;38173;52.850;6.970;2022-08-05T00:16:08;17.20;99.90
52203;DHT22;38173;52.850;6.970;2022-08-05T00:18:36;17.20;99.90
52203;DHT22;38173;52.850;6.970;2022-08-05T00:21:01;17.20;99.90
52203;DHT22;38173;52.850;6.970;2022-08-05T00:23:27;17.20;99.90
52203;DHT22;38173;52.850;6.970;2022-08-05T00:25:53;17.10;99.90
52203;DHT22;38173;52.850;6.970;2022-08-05T00:28:18;17.10;99.90
52203;DHT22;38173;52.850;6.970;2022-08-05T00:30:44;17.10;99.90
52203;DHT22;38173;52.850;6.970;2022-08-05T00:33:10;17.10;99.90
52203;DHT22;38173;52.850;6.970;2022-08-05T00:35:36;17.10;99.90
52203;DHT22;38173;52.850;6.970;2022-08-05T00:38:01;17.10;99.90
52203;DHT22;38173;52.850;6.970;2022-08-05T00:40:27;17.10;99.90
52203;DHT22;38173;52.850;6.970;2022-08-05T00:42:57;17.20;99.90
52203;DHT22;38173;52.850;6.970;2022-08-05T00:45:23;17.20;99.90
52203;DHT22;38173;52.850;6.970;2022-08-05T00:47:49;17.20;99.90
52203;DHT22;38173;52.850;6.970;2022-08-05T00:50:14;17.20;99.90
52203;DHT22;38173;52.850;6.970;2022-08-05T00:52:40;17.20;99.90
52203;DHT22;38173;52.850;6.970;2022-08-05T00:55:06;17.20;99.90
52203;DHT22;38173;52.850;6.970;2022-08-05T00:57:31;17.30;99.90
52203;DHT22;38173;52.850;6.970;2022-08-05T00:59:57;17.20;99.90
52203;DHT22;38173;52.850;6.970;2022-08-05T01:02:23;17.20;99.90
52203;DHT22;38173;52.850;6.970;2022-08-05T01:04:49;17.20;99.90
52203;DHT22;38173;52.850;6.970;2022-08-05T01:07:14;17.20;99.90
52203;DHT22;38173;52.850;6.970;2022-08-05T01:09:40;17.20;99.90
52203;DHT22;38173;52.850;6.970;2022-08-05T01:12:08;17.20;99.90
52203;DHT22;38173;52.850;6.970;2022-08-05T01:14:56;17.20;99.90
52203;DHT22;38173;52.850;6.970;2022-08-05T01:17:35;17.20;99.90
52203;DHT22;38173;52.850;6.970;2022-08-05T01:25:52;17.10;99.90
52203;DHT22;38173;52.850;6.970;2022-08-05T01:28:36;17.10;99.90
52203;DHT22;38173;52.850;6.970;2022-08-05T01:33:56;17.10;99.90
52203;DHT22;38173;52.850;6.970;2022-08-05T01:36:27;17.20;99.90
52203;DHT22;38173;52.850;6.970;2022-08-05T01:38:54;17.10;99.90
52203;DHT22;38173;52.850;6.970;2022-08-05T01:41:21;17.20;99.90
52203;DHT22;38173;52.850;6.970;2022-08-05T01:43:49;17.10;99.90
52203;DHT22;38173;52.850;6.970;2022-08-05T01:46:16;17.20;99.90
52203;DHT22;38173;52.850;6.970;2022-08-05T01:48:44;17.10;99.90
52203;DHT22;38173;52.850;6.970;2022-08-05T01:51:11;17.10;99.90
52203;DHT22;38173;52.850;6.970;2022-08-05T01:53:40;17.10;99.90
52203;DHT22;38173;52.850;6.970;2022-08-05T01:56:06;17.10;99.90
52203;DHT22;38173;52.850;6.970;2022-08-05T01:58:34;17.10;99.90
52203;DHT22;38173;52.850;6.970;2022-08-05T02:01:01;17.10;99.90
52203;DHT22;38173;52.850;6.970;2022-08-05T02:03:33;17.00;99.90
52203;DHT22;38173;52.850;6.970;2022-08-05T02:06:01;17.00;99.90
52203;DHT22;38173;52.850;6.970;2022-08-05T02:08:32;17.00;99.90
52203;DHT22;38173;52.850;6.970;2022-08-05T02:11:04;17.00;99.90
52203;DHT22;38173;52.850;6.970;2022-08-05T02:13:43;17.00;99.90
52203;DHT22;38173;52.850;6.970;2022-08-05T02:16:33;17.00;99.90
52203;DHT22;38173;52.850;6.970;2022-08-05T02:19:06;17.00;99.90
52203;DHT22;38173;52.850;6.970;2022-08-05T02:21:39;17.00;99.90
52203;DHT22;38173;52.850;6.970;2022-08-05T02:24:10;17.00;99.90
52203;DHT22;38173;52.850;6.970;2022-08-05T02:26:46;17.00;99.90
52203;DHT22;38173;52.850;6.970;2022-08-05T02:29:15;17.00;99.90
52203;DHT22;38173;52.850;6.970;2022-08-05T02:31:43;17.10;99.90
52203;DHT22;38173;52.850;6.970;2022-08-05T02:34:10;17.00;99.90
52203;DHT22;38173;52.850;6.970;2022-08-05T02:36:41;17.10;99.90
52203;DHT22;38173;52.850;6.970;2022-08-05T02:39:08;17.00;99.90
52203;DHT22;38173;52.850;6.970;2022-08-05T02:41:36;17.00;99.90
52203;DHT22;38173;52.850;6.970;2022-08-05T02:44:07;17.10;99.90
52203;DHT22;38173;52.850;6.970;2022-08-05T02:46:34;17.00;99.90
52203;DHT22;38173;52.850;6.970;2022-08-05T02:49:00;17.00;99.90
52203;DHT22;38173;52.850;6.970;2022-08-05T02:51:27;17.00;99.90
52203;DHT22;38173;52.850;6.970;2022-08-05T02:53:53;17.00;99.90
52203;DHT22;38173;52.850;6.970;2022-08-05T02:56:19;17.00;99.90
52203;DHT22;38173;52.850;6.970;2022-08-05T02:58:47;17.00;99.90
52203;DHT22;38173;52.850;6.970;2022-08-05T03:01:22;17.00;99.90
52203;DHT22;38173;52.850;6.970;2022-08-05T03:03:53;16.90;99.90
52203;DHT22;38173;52.850;6.970;2022-08-05T03:06:20;16.90;99.90
52203;DHT22;38173;52.850;6.970;2022-08-05T03:08:46;16.90;99.90
52203;DHT22;38173;52.850;6.970;2022-08-05T03:11:24;16.90;99.90
52203;DHT22;38173;52.850;6.970;2022-08-05T03:13:50;16.90;99.90
52203;DHT22;38173;52.850;6.970;2022-08-05T03:16:17;17.00;99.90
52203;DHT22;38173;52.850;6.970;2022-08-05T03:18:43;16.90;99.90
52203;DHT22;38173;52.850;6.970;2022-08-05T03:21:09;16.90;99.90
52203;DHT22;38173;52.850;6.970;2022-08-05T03:23:37;16.90;99.90
52203;DHT22;38173;52.850;6.970;2022-08-05T03:26:04;16.90;99.90
52203;DHT22;38173;52.850;6.970;2022-08-05T03:28:30;16.90;99.90
52203;DHT22;38173;52.850;6.970;2022-08-05T03:30:58;16.90;99.90
52203;DHT22;38173;52.850;6.970;2022-08-05T03:33:27;16.90;99.90
52203;DHT22;38173;52.850;6.970;2022-08-05T03:35:55;16.90;99.90
52203;DHT22;38173;52.850;6.970;2022-08-05T03:38:22;16.90;99.90
52203;DHT22;38173;52.850;6.970;2022-08-05T03:40:48;16.90;99.90
52203;DHT22;38173;52.850;6.970;2022-08-05T03:43:15;16.90;99.90
52203;DHT22;38173;52.850;6.970;2022-08-05T03:45:41;16.90;99.90
52203;DHT22;38173;52.850;6.970;2022-08-05T03:48:07;16.90;99.90
52203;DHT22;38173;52.850;6.970;2022-08-05T03:50:56;16.90;99.90
52203;DHT22;38173;52.850;6.970;2022-08-05T03:53:34;16.90;99.90
52203;DHT22;38173;52.850;6.970;2022-08-05T03:56:06;16.90;99.90
52203;DHT22;38173;52.850;6.970;2022-08-05T03:58:35;16.90;99.90
52203;DHT22;38173;52.850;6.970;2022-08-05T04:01:05;16.90;99.90
52203;DHT22;38173;52.850;6.970;2022-08-05T04:03:33;16.90;99.90
52203;DHT22;38173;52.850;6.970;2022-08-05T04:06:01;16.90;99.90
52203;DHT22;38173;52.850;6.970;2022-08-05T04:08:28;16.90;99.90
52203;DHT22;38173;52.850;6.970;2022-08-05T04:10:58;16.90;99.90
52203;DHT22;38173;52.850;6.970;2022-08-05T04:13:25;16.90;99.90
52203;DHT22;38173;52.850;6.970;2022-08-05T04:15:52;16.90;99.90
52203;DHT22;38173;52.850;6.970;2022-08-05T04:18:19;16.90;99.90
52203;DHT22;38173;52.850;6.970;2022-08-05T04:20:52;16.90;99.90
52203;DHT22;38173;52.850;6.970;2022-08-05T04:23:19;16.90;99.90
52203;DHT22;38173;52.850;6.970;2022-08-05T04:25:46;16.90;99.90
52203;DHT22;38173;52.850;6.970;2022-08-05T04:28:11;16.90;99.90
52203;DHT22;38173;52.850;6.970;2022-08-05T04:30:37;16.90;99.90
52203;DHT22;38173;52.850;6.970;2022-08-05T04:33:03;16.90;99.90
52203;DHT22;38173;52.850;6.970;2022-08-05T04:35:28;16.90;99.90
52203;DHT22;38173;52.850;6.970;2022-08-05T04:37:54;16.90;99.90
52203;DHT22;38173;52.850;6.970;2022-08-05T04:40:20;16.90;99.90
52203;DHT22;38173;52.850;6.970;2022-08-05T04:42:45;16.90;99.90
52203;DHT22;38173;52.850;6.970;2022-08-05T04:45:11;16.90;99.90
52203;DHT22;38173;52.850;6.970;2022-08-05T04:47:37;16.90;99.90
52203;DHT22;38173;52.850;6.970;2022-08-05T04:50:03;16.90;99.90
52203;DHT22;38173;52.850;6.970;2022-08-05T04:52:28;16.90;99.90
52203;DHT22;38173;52.850;6.970;2022-08-05T04:54:55;16.90;99.90
52203;DHT22;38173;52.850;6.970;2022-08-05T04:57:20;16.90;99.90
52203;DHT22;38173;52.850;6.970;2022-08-05T04:59:46;16.90;99.90
52203;DHT22;38173;52.850;6.970;2022-08-05T05:02:12;16.90;99.90
52203;DHT22;38173;52.850;6.970;2022-08-05T05:04:37;16.90;99.90
52203;DHT22;38173;52.850;6.970;2022-08-05T05:07:03;16.90;99.90
52203;DHT22;38173;52.850;6.970;2022-08-05T05:09:29;16.90;99.90
52203;DHT22;38173;52.850;6.970;2022-08-05T05:11:54;16.90;99.90
52203;DHT22;38173;52.850;6.970;2022-08-05T05:14:20;16.90;99.90
52203;DHT22;38173;52.850;6.970;2022-08-05T05:16:45;16.90;99.90
52203;DHT22;38173;52.850;6.970;2022-08-05T05:19:11;16.90;99.90
52203;DHT22;38173;52.850;6.970;2022-08-05T05:21:37;17.00;99.90
52203;DHT22;38173;52.850;6.970;2022-08-05T05:24:03;17.00;99.90
52203;DHT22;38173;52.850;6.970;2022-08-05T05:26:28;17.00;99.90
52203;DHT22;38173;52.850;6.970;2022-08-05T05:28:54;17.00;99.90
52203;DHT22;38173;52.850;6.970;2022-08-05T05:31:20;17.10;99.90
52203;DHT22;38173;52.850;6.970;2022-08-05T05:33:45;17.10;99.90
52203;DHT22;38173;52.850;6.970;2022-08-05T05:36:11;17.20;99.90
52203;DHT22;38173;52.850;6.970;2022-08-05T05:38:37;17.10;99.90
52203;DHT22;38173;52.850;6.970;2022-08-05T05:41:02;17.20;99.90
52203;DHT22;38173;52.850;6.970;2022-08-05T05:43:28;17.20;99.90
52203;DHT22;38173;52.850;6.970;2022-08-05T05:45:54;17.30;99.90
52203;DHT22;38173;52.850;6.970;2022-08-05T05:48:19;17.30;99.90
52203;DHT22;38173;52.850;6.970;2022-08-05T05:50:45;17.30;99.90
52203;DHT22;38173;52.850;6.970;2022-08-05T05:53:11;17.30;99.90
52203;DHT22;38173;52.850;6.970;2022-08-05T05:55:37;17.30;99.90
52203;DHT22;38173;52.850;6.970;2022-08-05T05:58:03;17.40;99.90
52203;DHT22;38173;52.850;6.970;2022-08-05T06:00:29;17.30;99.90
52203;DHT22;38173;52.850;6.970;2022-08-05T06:02:54;17.30;99.90
52203;DHT22;38173;52.850;6.970;2022-08-05T06:05:20;17.30;99.90
52203;DHT22;38173;52.850;6.970;2022-08-05T06:07:46;17.40;99.90
52203;DHT22;38173;52.850;6.970;2022-08-05T06:10:14;17.30;99.90
52203;DHT22;38173;52.850;6.970;2022-08-05T06:12:40;17.40;99.90
52203;DHT22;38173;52.850;6.970;2022-08-05T06:15:06;17.40;99.90
52203;DHT22;38173;52.850;6.970;2022-08-05T06:17:32;17.40;99.90
52203;DHT22;38173;52.850;6.970;2022-08-05T06:19:58;17.40;99.90
52203;DHT22;38173;52.850;6.970;2022-08-05T06:22:33;17.30;99.90
52203;DHT22;38173;52.850;6.970;2022-08-05T06:25:03;17.40;99.90
52203;DHT22;38173;52.850;6.970;2022-08-05T06:27:29;17.40;99.90
52203;DHT22;38173;52.850;6.970;2022-08-05T06:29:55;17.40;99.90
52203;DHT22;38173;52.850;6.970;2022-08-05T06:32:20;17.50;99.90
52203;DHT22;38173;52.850;6.970;2022-08-05T06:34:46;17.50;99.90
52203;DHT22;38173;52.850;6.970;2022-08-05T06:37:12;17.60;99.90
52203;DHT22;38173;52.850;6.970;2022-08-05T06:39:38;17.60;99.90
52203;DHT22;38173;52.850;6.970;2022-08-05T06:42:04;17.70;99.90
52203;DHT22;38173;52.850;6.970;2022-08-05T06:44:30;17.80;99.90
52203;DHT22;38173;52.850;6.970;2022-08-05T06:46:56;17.80;99.90
52203;DHT22;38173;52.850;6.970;2022-08-05T06:49:23;17.80;99.90
52203;DHT22;38173;52.850;6.970;2022-08-05T06:51:49;17.90;99.90
52203;DHT22;38173;52.850;6.970;2022-08-05T06:54:15;17.90;99.90
52203;DHT22;38173;52.850;6.970;2022-08-05T06:56:41;18.00;99.90
52203;DHT22;38173;52.850;6.970;2022-08-05T06:59:07;18.10;99.90
52203;DHT22;38173;52.850;6.970;2022-08-05T07:01:32;18.20;99.90
52203;DHT22;38173;52.850;6.970;2022-08-05T07:03:59;18.30;99.90
52203;DHT22;38173;52.850;6.970;2022-08-05T07:06:26;18.40;99.90
52203;DHT22;38173;52.850;6.970;2022-08-05T07:08:51;18.50;99.90
52203;DHT22;38173;52.850;6.970;2022-08-05T07:11:17;18.50;99.90
52203;DHT22;38173;52.850;6.970;2022-08-05T07:13:43;18.60;99.90
52203;DHT22;38173;52.850;6.970;2022-08-05T07:16:28;18.60;99.90
52203;DHT22;38173;52.850;6.970;2022-08-05T07:19:12;18.60;99.90
52203;DHT22;38173;52.850;6.970;2022-08-05T07:21:38;18.70;99.90
52203;DHT22;38173;52.850;6.970;2022-08-05T07:24:04;18.70;99.90
52203;DHT22;38173;52.850;6.970;2022-08-05T07:26:30;18.80;99.90
52203;DHT22;38173;52.850;6.970;2022-08-05T07:28:56;18.80;99.90
52203;DHT22;38173;52.850;6.970;2022-08-05T07:31:21;18.80;99.90
52203;DHT22;38173;52.850;6.970;2022-08-05T07:33:47;18.80;99.90
52203;DHT22;38173;52.850;6.970;2022-08-05T07:36:13;18.80;99.90
52203;DHT22;38173;52.850;6.970;2022-08-05T07:38:39;18.80;99.90
52203;DHT22;38173;52.850;6.970;2022-08-05T07:41:10;18.90;99.90
52203;DHT22;38173;52.850;6.970;2022-08-05T07:43:36;18.90;99.90
52203;DHT22;38173;52.850;6.970;2022-08-05T07:46:02;19.00;99.90
52203;DHT22;38173;52.850;6.970;2022-08-05T07:48:28;19.10;99.90
52203;DHT22;38173;52.850;6.970;2022-08-05T07:50:53;19.20;99.90
52203;DHT22;38173;52.850;6.970;2022-08-05T07:53:19;19.20;99.90
52203;DHT22;38173;52.850;6.970;2022-08-05T07:55:45;19.30;99.90
52203;DHT22;38173;52.850;6.970;2022-08-05T07:58:10;19.40;99.90
52203;DHT22;38173;52.850;6.970;2022-08-05T08:00:36;19.50;99.90
52203;DHT22;38173;52.850;6.970;2022-08-05T08:03:02;19.60;99.90
52203;DHT22;38173;52.850;6.970;2022-08-05T08:05:27;19.70;99.90
52203;DHT22;38173;52.850;6.970;2022-08-05T08:07:53;19.80;99.90
52203;DHT22;38173;52.850;6.970;2022-08-05T08:10:22;19.80;99.90
52203;DHT22;38173;52.850;6.970;2022-08-05T08:12:50;19.80;99.90
52203;DHT22;38173;52.850;6.970;2022-08-05T08:15:16;19.90;99.90
52203;DHT22;38173;52.850;6.970;2022-08-05T08:17:43;19.90;99.90
52203;DHT22;38173;52.850;6.970;2022-08-05T08:20:09;19.90;99.90
52203;DHT22;38173;52.850;6.970;2022-08-05T08:22:35;19.80;99.90
52203;DHT22;38173;52.850;6.970;2022-08-05T08:25:01;19.80;99.90
52203;DHT22;38173;52.850;6.970;2022-08-05T08:27:27;19.80;99.90
52203;DHT22;38173;52.850;6.970;2022-08-05T08:29:52;19.80;99.90
52203;DHT22;38173;52.850;6.970;2022-08-05T08:32:18;19.80;99.90
52203;DHT22;38173;52.850;6.970;2022-08-05T08:34:44;19.90;99.90
52203;DHT22;38173;52.850;6.970;2022-08-05T08:37:09;20.00;99.90
52203;DHT22;38173;52.850;6.970;2022-08-05T08:39:35;20.20;99.90
52203;DHT22;38173;52.850;6.970;2022-08-05T08:42:01;20.30;99.90
52203;DHT22;38173;52.850;6.970;2022-08-05T08:44:30;20.30;99.90
52203;DHT22;38173;52.850;6.970;2022-08-05T08:46:56;20.40;99.90
52203;DHT22;38173;52.850;6.970;2022-08-05T08:49:23;20.50;99.90
52203;DHT22;38173;52.850;6.970;2022-08-05T08:51:57;20.40;99.90
52203;DHT22;38173;52.850;6.970;2022-08-05T08:54:24;20.50;99.90
52203;DHT22;38173;52.850;6.970;2022-08-05T08:56:50;20.50;99.90
52203;DHT22;38173;52.850;6.970;2022-08-05T08:59:19;20.60;99.90
52203;DHT22;38173;52.850;6.970;2022-08-05T09:01:46;20.60;99.90
52203;DHT22;38173;52.850;6.970;2022-08-05T09:04:12;20.60;99.90
52203;DHT22;38173;52.850;6.970;2022-08-05T09:06:38;20.60;99.90
52203;DHT22;38173;52.850;6.970;2022-08-05T09:09:04;20.70;99.90
52203;DHT22;38173;52.850;6.970;2022-08-05T09:11:34;20.80;99.90
52203;DHT22;38173;52.850;6.970;2022-08-05T09:14:02;20.90;99.90
52203;DHT22;38173;52.850;6.970;2022-08-05T09:16:27;21.00;99.90
52203;DHT22;38173;52.850;6.970;2022-08-05T09:18:53;21.10;99.90
52203;DHT22;38173;52.850;6.970;2022-08-05T09:21:19;21.10;99.90
52203;DHT22;38173;52.850;6.970;2022-08-05T09:24:01;21.10;99.90
52203;DHT22;38173;52.850;6.970;2022-08-05T09:26:28;21.10;99.90
52203;DHT22;38173;52.850;6.970;2022-08-05T09:28:58;21.10;99.90
52203;DHT22;38173;52.850;6.970;2022-08-05T09:31:24;21.10;99.90
52203;DHT22;38173;52.850;6.970;2022-08-05T09:33:55;21.10;99.90
52203;DHT22;38173;52.850;6.970;2022-08-05T09:36:23;21.20;99.90
52203;DHT22;38173;52.850;6.970;2022-08-05T09:38:57;21.20;99.90
52203;DHT22;38173;52.850;6.970;2022-08-05T09:41:23;21.30;99.90
52203;DHT22;38173;52.850;6.970;2022-08-05T09:43:49;21.40;99.90
52203;DHT22;38173;52.850;6.970;2022-08-05T09:46:33;21.50;99.90
52203;DHT22;38173;52.850;6.970;2022-08-05T09:49:00;21.60;99.90
52203;DHT22;38173;52.850;6.970;2022-08-05T09:51:38;21.80;99.90
52203;DHT22;38173;52.850;6.970;2022-08-05T09:54:06;21.90;99.90
52203;DHT22;38173;52.850;6.970;2022-08-05T09:56:36;22.00;99.90
52203;DHT22;38173;52.850;6.970;2022-08-05T09:59:08;22.00;99.90
52203;DHT22;38173;52.850;6.970;2022-08-05T10:01:36;22.10;99.90
52203;DHT22;38173;52.850;6.970;2022-08-05T10:04:08;22.00;99.90
52203;DHT22;38173;52.850;6.970;2022-08-05T10:06:38;22.00;99.90
52203;DHT22;38173;52.850;6.970;2022-08-05T10:09:13;22.00;99.90
52203;DHT22;38173;52.850;6.970;2022-08-05T10:11:41;22.00;99.90
52203;DHT22;38173;52.850;6.970;2022-08-05T10:14:31;21.90;99.90
52203;DHT22;38173;52.850;6.970;2022-08-05T10:17:12;21.80;99.90
52203;DHT22;38173;52.850;6.970;2022-08-05T10:19:38;21.70;99.90
52203;DHT22;38173;52.850;6.970;2022-08-05T10:22:03;21.60;99.90
52203;DHT22;38173;52.850;6.970;2022-08-05T10:24:31;21.50;99.90
52203;DHT22;38173;52.850;6.970;2022-08-05T10:26:57;21.40;99.90
52203;DHT22;38173;52.850;6.970;2022-08-05T10:29:25;21.30;99.90
52203;DHT22;38173;52.850;6.970;2022-08-05T10:31:58;21.30;99.90
52203;DHT22;38173;52.850;6.970;2022-08-05T10:34:24;21.20;99.90
52203;DHT22;38173;52.850;6.970;2022-08-05T10:36:50;21.10;99.90
52203;DHT22;38173;52.850;6.970;2022-08-05T10:39:19;21.00;99.90
52203;DHT22;38173;52.850;6.970;2022-08-05T10:42:02;20.90;99.90
52203;DHT22;38173;52.850;6.970;2022-08-05T10:44:32;20.90;99.90
52203;DHT22;38173;52.850;6.970;2022-08-05T10:47:09;20.90;99.90
52203;DHT22;38173;52.850;6.970;2022-08-05T10:49:35;21.00;99.90
52203;DHT22;38173;52.850;6.970;2022-08-05T10:52:40;21.00;99.90
52203;DHT22;38173;52.850;6.970;2022-08-05T10:55:10;21.20;99.90
52203;DHT22;38173;52.850;6.970;2022-08-05T10:57:41;21.30;99.90
52203;DHT22;38173;52.850;6.970;2022-08-05T11:00:09;21.40;99.90
52203;DHT22;38173;52.850;6.970;2022-08-05T11:02:35;21.40;99.90
52203;DHT22;38173;52.850;6.970;2022-08-05T11:05:08;21.40;99.90
52203;DHT22;38173;52.850;6.970;2022-08-05T11:07:34;21.50;99.90
52203;DHT22;38173;52.850;6.970;2022-08-05T11:10:24;21.60;99.90
52203;DHT22;38173;52.850;6.970;2022-08-05T11:12:51;21.70;99.90
52203;DHT22;38173;52.850;6.970;2022-08-05T11:15:24;21.70;99.90
52203;DHT22;38173;52.850;6.970;2022-08-05T11:18:21;21.80;99.90
52203;DHT22;38173;52.850;6.970;2022-08-05T11:20:49;22.00;99.90
52203;DHT22;38173;52.850;6.970;2022-08-05T11:33:28;22.10;99.90
52203;DHT22;38173;52.850;6.970;2022-08-05T11:36:05;22.10;99.90
52203;DHT22;38173;52.850;6.970;2022-08-05T11:41:23;22.10;99.90
52203;DHT22;38173;52.850;6.970;2022-08-05T11:46:31;22.00;97.20
52203;DHT22;38173;52.850;6.970;2022-08-05T11:48:58;22.00;98.30
52203;DHT22;38173;52.850;6.970;2022-08-05T11:51:26;22.00;93.80
52203;DHT22;38173;52.850;6.970;2022-08-05T11:53:53;22.10;96.00
52203;DHT22;38173;52.850;6.970;2022-08-05T11:56:19;22.00;91.20
52203;DHT22;38173;52.850;6.970;2022-08-05T11:58:46;22.00;91.60
52203;DHT22;38173;52.850;6.970;2022-08-05T12:01:16;22.10;91.60
52203;DHT22;38173;52.850;6.970;2022-08-05T12:03:51;22.10;86.80
52203;DHT22;38173;52.850;6.970;2022-08-05T12:06:22;22.30;85.40
52203;DHT22;38173;52.850;6.970;2022-08-05T12:08:51;22.40;80.60
52203;DHT22;38173;52.850;6.970;2022-08-05T12:14:02;22.70;78.60
52203;DHT22;38173;52.850;6.970;2022-08-05T12:16:32;22.70;72.80
52203;DHT22;38173;52.850;6.970;2022-08-05T12:18:58;22.90;70.80
52203;DHT22;38173;52.850;6.970;2022-08-05T12:21:30;23.10;75.60
52203;DHT22;38173;52.850;6.970;2022-08-05T12:24:07;23.40;75.60
52203;DHT22;38173;52.850;6.970;2022-08-05T12:26:35;23.60;75.70
52203;DHT22;38173;52.850;6.970;2022-08-05T12:29:06;23.60;71.60
52203;DHT22;38173;52.850;6.970;2022-08-05T12:31:32;23.50;71.90
52203;DHT22;38173;52.850;6.970;2022-08-05T12:34:06;23.50;71.50
52203;DHT22;38173;52.850;6.970;2022-08-05T12:36:33;23.50;70.60
52203;DHT22;38173;52.850;6.970;2022-08-05T12:38:59;23.40;72.60
52203;DHT22;38173;52.850;6.970;2022-08-05T12:41:35;23.30;69.00
52203;DHT22;38173;52.850;6.970;2022-08-05T12:44:09;23.10;71.70
52203;DHT22;38173;52.850;6.970;2022-08-05T12:46:37;23.10;72.70
52203;DHT22;38173;52.850;6.970;2022-08-05T12:49:13;23.30;73.80
52203;DHT22;38173;52.850;6.970;2022-08-05T12:51:58;23.60;74.20
52203;DHT22;38173;52.850;6.970;2022-08-05T12:54:29;23.70;71.80
52203;DHT22;38173;52.850;6.970;2022-08-05T12:57:00;24.00;76.50
52203;DHT22;38173;52.850;6.970;2022-08-05T12:59:30;24.30;72.70
52203;DHT22;38173;52.850;6.970;2022-08-05T13:02:06;24.30;71.00
52203;DHT22;38173;52.850;6.970;2022-08-05T13:04:37;24.10;69.30
52203;DHT22;38173;52.850;6.970;2022-08-05T13:07:05;23.90;67.40
52203;DHT22;38173;52.850;6.970;2022-08-05T13:09:33;23.80;69.50
52203;DHT22;38173;52.850;6.970;2022-08-05T13:12:05;24.00;70.90
52203;DHT22;38173;52.850;6.970;2022-08-05T13:17:18;23.90;71.50
52203;DHT22;38173;52.850;6.970;2022-08-05T13:22:24;23.90;68.80
52203;DHT22;38173;52.850;6.970;2022-08-05T13:24:50;24.00;73.10
52203;DHT22;38173;52.850;6.970;2022-08-05T13:27:36;24.30;69.70
52203;DHT22;38173;52.850;6.970;2022-08-05T13:30:03;24.80;71.30
52203;DHT22;38173;52.850;6.970;2022-08-05T13:32:29;25.10;71.50
52203;DHT22;38173;52.850;6.970;2022-08-05T13:34:55;24.90;65.90
52203;DHT22;38173;52.850;6.970;2022-08-05T13:37:21;24.70;68.40
52203;DHT22;38173;52.850;6.970;2022-08-05T13:39:48;24.40;68.40
52203;DHT22;38173;52.850;6.970;2022-08-05T13:42:14;24.30;71.70
52203;DHT22;38173;52.850;6.970;2022-08-05T13:44:43;24.30;70.00
52203;DHT22;38173;52.850;6.970;2022-08-05T13:47:08;24.20;68.60
52203;DHT22;38173;52.850;6.970;2022-08-05T13:49:34;23.90;66.20
52203;DHT22;38173;52.850;6.970;2022-08-05T13:52:14;23.90;71.80
52203;DHT22;38173;52.850;6.970;2022-08-05T13:54:40;23.90;69.10
52203;DHT22;38173;52.850;6.970;2022-08-05T13:57:07;23.90;70.60
52203;DHT22;38173;52.850;6.970;2022-08-05T13:59:34;23.70;75.70
52203;DHT22;38173;52.850;6.970;2022-08-05T14:02:01;23.40;67.40
52203;DHT22;38173;52.850;6.970;2022-08-05T14:04:29;23.20;71.00
52203;DHT22;38173;52.850;6.970;2022-08-05T14:07:13;23.40;68.90
52203;DHT22;38173;52.850;6.970;2022-08-05T14:09:39;23.70;70.70
52203;DHT22;38173;52.850;6.970;2022-08-05T14:12:06;23.80;70.80
52203;DHT22;38173;52.850;6.970;2022-08-05T14:14:32;23.60;69.10
52203;DHT22;38173;52.850;6.970;2022-08-05T14:16:58;23.60;72.10
52203;DHT22;38173;52.850;6.970;2022-08-05T14:19:23;23.50;70.00
52203;DHT22;38173;52.850;6.970;2022-08-05T14:21:49;23.40;64.30
52203;DHT22;38173;52.850;6.970;2022-08-05T14:24:15;23.40;69.20
52203;DHT22;38173;52.850;6.970;2022-08-05T14:26:41;23.30;69.40
52203;DHT22;38173;52.850;6.970;2022-08-05T14:29:07;23.30;67.80
52203;DHT22;38173;52.850;6.970;2022-08-05T14:31:33;23.30;69.20
52203;DHT22;38173;52.850;6.970;2022-08-05T14:33:59;23.20;71.20
52203;DHT22;38173;52.850;6.970;2022-08-05T14:36:24;23.30;69.90
52203;DHT22;38173;52.850;6.970;2022-08-05T14:38:50;23.10;70.80
52203;DHT22;38173;52.850;6.970;2022-08-05T14:41:16;23.10;72.00
52203;DHT22;38173;52.850;6.970;2022-08-05T14:43:42;23.00;70.80
52203;DHT22;38173;52.850;6.970;2022-08-05T14:46:08;22.80;67.40
52203;DHT22;38173;52.850;6.970;2022-08-05T14:48:34;22.90;69.00
52203;DHT22;38173;52.850;6.970;2022-08-05T14:51:00;23.40;69.40
52203;DHT22;38173;52.850;6.970;2022-08-05T14:53:26;24.30;69.20
52203;DHT22;38173;52.850;6.970;2022-08-05T14:55:52;25.10;66.90
52203;DHT22;38173;52.850;6.970;2022-08-05T14:58:17;25.70;64.50
52203;DHT22;38173;52.850;6.970;2022-08-05T15:00:43;25.80;63.50
52203;DHT22;38173;52.850;6.970;2022-08-05T15:03:11;25.80;61.70
52203;DHT22;38173;52.850;6.970;2022-08-05T15:05:36;25.30;64.20
52203;DHT22;38173;52.850;6.970;2022-08-05T15:08:02;24.80;64.90
52203;DHT22;38173;52.850;6.970;2022-08-05T15:10:28;24.50;65.60
52203;DHT22;38173;52.850;6.970;2022-08-05T15:12:54;24.90;66.80
52203;DHT22;38173;52.850;6.970;2022-08-05T15:15:20;25.60;66.00
52203;DHT22;38173;52.850;6.970;2022-08-05T15:17:45;25.50;64.10
52203;DHT22;38173;52.850;6.970;2022-08-05T15:20:12;25.00;62.90
52203;DHT22;38173;52.850;6.970;2022-08-05T15:22:37;25.50;64.70
52203;DHT22;38173;52.850;6.970;2022-08-05T15:25:04;26.20;62.90
52203;DHT22;38173;52.850;6.970;2022-08-05T15:27:32;27.10;62.20
52203;DHT22;38173;52.850;6.970;2022-08-05T15:29:58;27.90;60.20
52203;DHT22;38173;52.850;6.970;2022-08-05T15:32:24;28.30;60.20
52203;DHT22;38173;52.850;6.970;2022-08-05T15:34:50;28.30;58.40
52203;DHT22;38173;52.850;6.970;2022-08-05T15:37:16;27.70;56.90
52203;DHT22;38173;52.850;6.970;2022-08-05T15:39:42;26.80;60.10
52203;DHT22;38173;52.850;6.970;2022-08-05T15:42:08;26.70;61.10
52203;DHT22;38173;52.850;6.970;2022-08-05T15:44:40;27.20;61.10
52203;DHT22;38173;52.850;6.970;2022-08-05T15:47:06;27.90;61.20
52203;DHT22;38173;52.850;6.970;2022-08-05T15:49:35;28.50;58.20
52203;DHT22;38173;52.850;6.970;2022-08-05T15:52:01;29.00;57.60
52203;DHT22;38173;52.850;6.970;2022-08-05T15:54:27;29.40;55.30
52203;DHT22;38173;52.850;6.970;2022-08-05T15:56:53;29.80;55.80
52203;DHT22;38173;52.850;6.970;2022-08-05T15:59:18;30.20;53.10
52203;DHT22;38173;52.850;6.970;2022-08-05T16:01:44;30.10;54.60
52203;DHT22;38173;52.850;6.970;2022-08-05T16:04:10;30.00;54.10
52203;DHT22;38173;52.850;6.970;2022-08-05T16:06:36;30.00;53.80
52203;DHT22;38173;52.850;6.970;2022-08-05T16:09:02;29.30;53.20